createdAt,value
2022-10-19T00:01:03.442Z,1013.6
2022-10-19T00:02:19.680Z,1013.7
2022-10-19T00:03:35.908Z,1013.6
2022-10-19T00:04:51.172Z,1013.6
2022-10-19T00:06:06.439Z,1013.6
2022-10-19T00:07:21.689Z,1013.6
2022-10-19T00:08:36.953Z,1013.6
2022-10-19T00:09:53.178Z,1013.5
2022-10-19T00:11:09.436Z,1013.5
2022-10-19T00:12:25.659Z,1013.5
2022-10-19T00:13:41.903Z,1013.5
2022-10-19T00:14:58.137Z,1013.5
2022-10-19T00:16:14.383Z,1013.5
2022-10-19T00:17:30.623Z,1013.5
2022-10-19T00:18:46.855Z,1013.5
2022-10-19T00:20:03.102Z,1013.5
2022-10-19T00:21:19.350Z,1013.5
2022-10-19T00:22:35.591Z,1013.6
2022-10-19T00:23:51.832Z,1013.6
2022-10-19T00:25:07.075Z,1013.6
2022-10-19T00:26:23.310Z,1013.6
2022-10-19T00:27:39.559Z,1013.5
2022-10-19T00:28:55.805Z,1013.6
2022-10-19T00:30:12.033Z,1013.6
2022-10-19T00:31:28.269Z,1013.6
2022-10-19T00:32:44.520Z,1013.6
2022-10-19T00:33:59.770Z,1013.6
2022-10-19T00:35:15.038Z,1013.5
2022-10-19T00:36:31.281Z,1013.5
2022-10-19T00:37:47.505Z,1013.5
2022-10-19T00:39:02.772Z,1013.5
2022-10-19T00:40:18.021Z,1013.5
2022-10-19T00:41:34.259Z,1013.5
2022-10-19T00:42:50.498Z,1013.5
2022-10-19T00:44:06.750Z,1013.6
2022-10-19T00:45:22.991Z,1013.5
2022-10-19T00:46:39.224Z,1013.5
2022-10-19T00:47:55.459Z,1013.5
2022-10-19T00:49:11.703Z,1013.5
2022-10-19T00:50:27.941Z,1013.5
2022-10-19T00:51:44.177Z,1013.5
2022-10-19T00:53:00.419Z,1013.5
2022-10-19T00:54:16.675Z,1013.5
2022-10-19T00:55:32.901Z,1013.5
2022-10-19T00:56:48.168Z,1013.5
2022-10-19T00:58:04.397Z,1013.4
2022-10-19T00:59:20.649Z,1013.4
2022-10-19T01:00:36.883Z,1013.4
2022-10-19T01:01:53.126Z,1013.4
2022-10-19T01:03:09.349Z,1013.3
2022-10-19T01:04:25.600Z,1013.4
2022-10-19T01:05:40.863Z,1013.3
2022-10-19T01:06:56.106Z,1013.3
2022-10-19T01:08:11.376Z,1013.4
2022-10-19T01:09:26.632Z,1013.4
2022-10-19T01:10:42.867Z,1013.4
2022-10-19T01:11:59.114Z,1013.4
2022-10-19T01:13:15.359Z,1013.4
2022-10-19T01:14:31.580Z,1013.4
2022-10-19T01:15:47.831Z,1013.4
2022-10-19T01:17:03.091Z,1013.4
2022-10-19T01:18:19.327Z,1013.4
2022-10-19T01:19:35.573Z,1013.4
2022-10-19T01:20:51.811Z,1013.5
2022-10-19T01:22:08.039Z,1013.4
2022-10-19T01:23:24.280Z,1013.4
2022-10-19T01:24:40.538Z,1013.5
2022-10-19T01:25:56.759Z,1013.4
2022-10-19T01:27:13.018Z,1013.5
2022-10-19T01:28:29.241Z,1013.5
2022-10-19T01:29:45.477Z,1013.4
2022-10-19T01:31:01.717Z,1013.4
2022-10-19T01:32:17.976Z,1013.4
2022-10-19T01:33:33.218Z,1013.4
2022-10-19T01:34:48.492Z,1013.4
2022-10-19T01:36:03.749Z,1013.4
2022-10-19T01:37:19.983Z,1013.4
2022-10-19T01:38:36.215Z,1013.4
2022-10-19T01:39:52.448Z,1013.4
2022-10-19T01:41:08.687Z,1013.4
2022-10-19T01:42:24.947Z,1013.4
2022-10-19T01:43:41.167Z,1013.4
2022-10-19T01:44:57.406Z,1013.4
2022-10-19T01:46:13.655Z,1013.5
2022-10-19T01:47:29.890Z,1013.5
2022-10-19T01:48:46.136Z,1013.5
2022-10-19T01:50:02.368Z,1013.4
2022-10-19T01:51:18.624Z,1013.4
2022-10-19T01:52:33.869Z,1013.4
2022-10-19T01:53:50.101Z,1013.4
2022-10-19T01:55:06.356Z,1013.4
2022-10-19T01:56:22.590Z,1013.4
2022-10-19T01:57:38.833Z,1013.5
2022-10-19T01:58:55.062Z,1013.5
2022-10-19T02:00:11.307Z,1013.5
2022-10-19T02:01:26.562Z,1013.5
2022-10-19T02:02:41.830Z,1013.5
2022-10-19T02:03:58.072Z,1013.5
2022-10-19T02:05:14.293Z,1013.5
2022-10-19T02:06:30.547Z,1013.5
2022-10-19T02:09:03.029Z,1013.5
2022-10-19T02:10:19.252Z,1013.4
2022-10-19T02:11:35.493Z,1013.4
2022-10-19T02:12:51.736Z,1013.5
2022-10-19T02:14:07.987Z,1013.4
2022-10-19T02:15:24.224Z,1013.4
2022-10-19T02:16:40.454Z,1013.4
2022-10-19T02:17:56.693Z,1013.4
2022-10-19T02:19:11.955Z,1013.4
2022-10-19T02:20:28.195Z,1013.5
2022-10-19T02:21:44.429Z,1013.4
2022-10-19T02:23:00.668Z,1013.4
2022-10-19T02:24:16.907Z,1013.4
2022-10-19T02:25:33.143Z,1013.4
2022-10-19T02:26:49.402Z,1013.4
2022-10-19T02:28:05.622Z,1013.4
2022-10-19T02:29:21.877Z,1013.4
2022-10-19T02:30:38.113Z,1013.4
2022-10-19T02:31:54.354Z,1013.4
2022-10-19T02:33:10.595Z,1013.4
2022-10-19T02:34:26.823Z,1013.4
2022-10-19T02:35:42.095Z,1013.4
2022-10-19T02:36:58.320Z,1013.3
2022-10-19T02:38:14.565Z,1013.3
2022-10-19T02:39:30.800Z,1013.3
2022-10-19T02:40:47.052Z,1013.3
2022-10-19T02:42:03.288Z,1013.3
2022-10-19T02:43:19.532Z,1013.2
2022-10-19T02:44:35.754Z,1013.3
2022-10-19T02:45:52.002Z,1013.3
2022-10-19T02:47:08.235Z,1013.2
2022-10-19T02:48:24.484Z,1013.2
2022-10-19T02:49:40.722Z,1013.2
2022-10-19T02:50:56.956Z,1013.2
2022-10-19T02:52:12.219Z,1013.2
2022-10-19T02:53:28.456Z,1013.2
2022-10-19T02:54:44.704Z,1013.2
2022-10-19T02:56:00.928Z,1013.2
2022-10-19T02:57:17.185Z,1013.2
2022-10-19T02:58:33.422Z,1013.2
2022-10-19T02:59:49.665Z,1013.2
2022-10-19T03:01:05.897Z,1013.2
2022-10-19T03:02:22.142Z,1013.2
2022-10-19T03:03:38.387Z,1013.2
2022-10-19T03:04:54.619Z,1013.2
2022-10-19T03:06:10.861Z,1013.3
2022-10-19T03:07:27.101Z,1013.3
2022-10-19T03:08:42.358Z,1013.3
2022-10-19T03:09:58.575Z,1013.3
2022-10-19T03:11:14.842Z,1013.4
2022-10-19T03:12:31.073Z,1013.4
2022-10-19T03:13:47.316Z,1013.5
2022-10-19T03:15:03.546Z,1013.4
2022-10-19T03:16:19.789Z,1013.4
2022-10-19T03:17:36.037Z,1013.4
2022-10-19T03:18:52.278Z,1013.4
2022-10-19T03:20:08.000Z,1013.3
2022-10-19T03:21:24.740Z,1013.3
2022-10-19T03:22:40.985Z,1013.3
2022-10-19T03:23:57.236Z,1013.3
2022-10-19T03:25:12.481Z,1013.3
2022-10-19T03:26:28.727Z,1013.3
2022-10-19T03:27:44.954Z,1013.3
2022-10-19T03:29:01.198Z,1013.3
2022-10-19T03:30:17.444Z,1013.4
2022-10-19T03:31:33.689Z,1013.4
2022-10-19T03:32:49.921Z,1013.4
2022-10-19T03:34:06.158Z,1013.4
2022-10-19T03:35:22.395Z,1013.4
2022-10-19T03:36:38.642Z,1013.5
2022-10-19T03:39:11.126Z,1013.5
2022-10-19T03:40:27.363Z,1013.5
2022-10-19T03:41:42.615Z,1013.5
2022-10-19T03:42:58.868Z,1013.5
2022-10-19T03:44:15.092Z,1013.5
2022-10-19T03:45:31.335Z,1013.5
2022-10-19T03:46:47.568Z,1013.6
2022-10-19T03:48:03.821Z,1013.5
2022-10-19T03:49:20.066Z,1013.5
2022-10-19T03:50:36.304Z,1013.5
2022-10-19T03:51:52.535Z,1013.5
2022-10-19T03:53:08.780Z,1013.5
2022-10-19T03:54:25.008Z,1013.5
2022-10-19T03:55:41.261Z,1013.6
2022-10-19T03:56:57.486Z,1013.5
2022-10-19T03:58:12.746Z,1013.5
2022-10-19T03:59:28.995Z,1013.5
2022-10-19T04:00:45.227Z,1013.5
2022-10-19T04:02:01.467Z,1013.5
2022-10-19T04:03:17.699Z,1013.5
2022-10-19T04:04:33.946Z,1013.5
2022-10-19T04:05:50.185Z,1013.5
2022-10-19T04:07:06.437Z,1013.5
2022-10-19T04:08:22.000Z,1013.5
2022-10-19T04:13:27.607Z,1013.5
2022-10-19T04:18:32.576Z,1013.5
2022-10-19T04:26:10.018Z,1013.6
2022-10-19T04:38:52.403Z,1013.7
2022-10-19T04:54:07.787Z,1013.7
2022-10-19T05:03:02.117Z,1013.6
2022-10-19T05:06:51.370Z,1013.6
2022-10-19T05:11:57.012Z,1013.6
2022-10-19T05:13:13.427Z,1013.6
2022-10-19T05:17:02.672Z,1013.6
2022-10-19T05:20:52.549Z,1013.6
2022-10-19T05:24:42.400Z,1013.6
2022-10-19T05:28:32.278Z,1013.7
2022-10-19T05:31:05.501Z,1013.7
2022-10-19T05:36:52.734Z,1013.7
2022-10-19T05:39:53.759Z,1013.8
2022-10-19T05:41:24.252Z,1013.8
2022-10-19T05:42:41.343Z,1013.8
2022-10-19T05:45:28.928Z,1013.8
2022-10-19T05:46:59.431Z,1013.8
2022-10-19T05:50:00.468Z,1013.8
2022-10-19T05:51:30.963Z,1013.8
2022-10-19T05:56:10.701Z,1013.9
2022-10-19T05:58:58.292Z,1013.9
2022-10-19T06:00:15.091Z,1013.9
2022-10-19T06:01:53.698Z,1014
2022-10-19T06:06:25.233Z,1013.9
2022-10-19T06:10:56.783Z,1013.9
2022-10-19T06:15:14.875Z,1014
2022-10-19T06:16:31.959Z,1014
2022-10-19T06:19:32.977Z,1014
2022-10-19T06:21:03.486Z,1014.1
2022-10-19T06:25:35.020Z,1014.1
2022-10-19T06:30:06.571Z,1014.1
2022-10-19T06:31:23.640Z,1014.1
2022-10-19T06:42:42.450Z,1014.1
2022-10-19T06:47:01.450Z,1014.2
2022-10-19T06:51:45.515Z,1014.2
2022-10-19T06:54:46.542Z,1014.2
2022-10-19T06:57:47.563Z,1014.2
2022-10-19T07:00:48.588Z,1014.2
2022-10-19T07:03:49.615Z,1014.3
2022-10-19T07:09:51.648Z,1014.3
2022-10-19T07:17:11.695Z,1014.4
2022-10-19T07:18:54.731Z,1014.4
2022-10-19T07:24:56.765Z,1014.5
2022-10-19T07:37:00.871Z,1014.6
2022-10-19T07:47:21.941Z,1014.5
2022-10-19T07:55:07.003Z,1014.5
2022-10-19T08:04:10.076Z,1014.6
2022-10-19T08:10:12.117Z,1014.6
2022-10-19T08:13:13.134Z,1014.7
2022-10-19T08:17:32.194Z,1014.6
2022-10-19T08:22:16.205Z,1014.7
2022-10-19T08:31:19.275Z,1014.7
2022-10-19T08:37:21.329Z,1014.7
2022-10-19T08:40:22.349Z,1014.7
2022-10-19T08:46:24.397Z,1014.7
2022-10-19T08:47:42.442Z,1014.7
2022-10-19T08:49:25.422Z,1014.7
2022-10-19T08:55:27.469Z,1014.6
2022-10-19T08:58:28.470Z,1014.6
2022-10-19T09:04:30.519Z,1014.6
2022-10-19T09:07:31.550Z,1014.6
2022-10-19T09:13:33.601Z,1014.6
2022-10-19T09:16:34.608Z,1014.6
2022-10-19T09:17:52.671Z,1014.6
2022-10-19T09:22:36.666Z,1014.6
2022-10-19T09:25:37.674Z,1014.6
2022-10-19T09:31:39.723Z,1014.6
2022-10-19T09:34:40.744Z,1014.7
2022-10-19T09:37:41.774Z,1014.6
2022-10-19T09:40:42.793Z,1014.7
2022-10-19T09:43:43.814Z,1014.6
2022-10-19T09:46:44.844Z,1014.7
2022-10-19T09:48:02.928Z,1014.6
2022-10-19T09:49:45.869Z,1014.6
2022-10-19T09:52:46.888Z,1014.6
2022-10-19T09:58:48.940Z,1014.6
2022-10-19T10:01:49.963Z,1014.5
2022-10-19T10:04:50.966Z,1014.5
2022-10-19T10:07:51.989Z,1014.5
2022-10-19T10:10:53.014Z,1014.5
2022-10-19T10:13:52.266Z,1014.5
2022-10-19T10:15:07.527Z,1014.6
2022-10-19T10:16:23.763Z,1014.6
2022-10-19T10:17:40.016Z,1014.6
2022-10-19T10:18:56.250Z,1014.6
2022-10-19T10:20:12.478Z,1014.6
2022-10-19T10:21:28.725Z,1014.6
2022-10-19T10:22:44.973Z,1014.7
2022-10-19T10:24:01.216Z,1014.7
2022-10-19T10:25:17.453Z,1014.7
2022-10-19T10:26:33.686Z,1014.7
2022-10-19T10:27:48.955Z,1014.7
2022-10-19T10:29:04.193Z,1014.6
2022-10-19T10:30:20.438Z,1014.6
2022-10-19T10:31:36.689Z,1014.6
2022-10-19T10:32:52.917Z,1014.6
2022-10-19T10:34:09.164Z,1014.6
2022-10-19T10:35:25.393Z,1014.6
2022-10-19T10:36:41.639Z,1014.5
2022-10-19T10:37:57.866Z,1014.6
2022-10-19T10:39:14.125Z,1014.5
2022-10-19T10:40:30.362Z,1014.5
2022-10-19T10:41:45.624Z,1014.5
2022-10-19T10:43:00.865Z,1014.5
2022-10-19T10:44:17.113Z,1014.5
2022-10-19T10:45:33.360Z,1014.5
2022-10-19T10:46:49.584Z,1014.5
2022-10-19T10:48:05.819Z,1014.6
2022-10-19T10:49:22.071Z,1014.6
2022-10-19T10:50:38.300Z,1014.5
2022-10-19T10:51:54.537Z,1014.5
2022-10-19T10:53:10.775Z,1014.6
2022-10-19T10:54:27.015Z,1014.6
2022-10-19T10:55:43.255Z,1014.6
2022-10-19T10:56:59.499Z,1014.6
2022-10-19T10:58:15.743Z,1014.6
2022-10-19T10:59:30.990Z,1014.6
2022-10-19T11:00:47.228Z,1014.6
2022-10-19T11:02:03.477Z,1014.6
2022-10-19T11:03:19.714Z,1014.6
2022-10-19T11:04:35.964Z,1014.6
2022-10-19T11:05:52.186Z,1014.6
2022-10-19T11:07:08.420Z,1014.6
2022-10-19T11:08:23.689Z,1014.6
2022-10-19T11:09:38.952Z,1014.6
2022-10-19T11:10:55.193Z,1014.6
2022-10-19T11:12:11.431Z,1014.6
2022-10-19T11:13:27.667Z,1014.5
2022-10-19T11:14:43.912Z,1014.6
2022-10-19T11:16:00.145Z,1014.5
2022-10-19T11:17:16.393Z,1014.5
2022-10-19T11:18:32.636Z,1014.5
2022-10-19T11:19:48.876Z,1014.4
2022-10-19T11:21:05.110Z,1014.5
2022-10-19T11:22:21.335Z,1014.5
2022-10-19T11:23:37.575Z,1014.5
2022-10-19T11:24:53.827Z,1014.5
2022-10-19T11:26:09.069Z,1014.4
2022-10-19T11:27:25.315Z,1014.4
2022-10-19T11:28:41.563Z,1014.5
2022-10-19T11:29:57.800Z,1014.4
2022-10-19T11:31:14.021Z,1014.4
2022-10-19T11:32:30.271Z,1014.4
2022-10-19T11:33:46.513Z,1014.4
2022-10-19T11:35:01.785Z,1014.4
2022-10-19T11:36:17.019Z,1014.4
2022-10-19T11:37:32.287Z,1014.4
2022-10-19T11:38:47.547Z,1014.4
2022-10-19T11:40:03.791Z,1014.5
2022-10-19T11:41:20.030Z,1014.4
2022-10-19T11:42:36.262Z,1014.4
2022-10-19T11:43:52.504Z,1014.3
2022-10-19T11:45:08.750Z,1014.4
2022-10-19T11:46:24.972Z,1014.4
2022-10-19T11:47:41.211Z,1014.3
2022-10-19T11:48:57.451Z,1014.4
2022-10-19T11:50:13.699Z,1014.4
2022-10-19T11:51:29.933Z,1014.3
2022-10-19T11:52:46.169Z,1014.3
2022-10-19T11:54:02.418Z,1014.3
2022-10-19T11:55:17.664Z,1014.3
2022-10-19T11:56:33.906Z,1014.2
2022-10-19T11:57:50.160Z,1014.3
2022-10-19T11:59:06.396Z,1014.3
2022-10-19T12:00:22.634Z,1014.3
2022-10-19T12:01:38.865Z,1014.3
2022-10-19T12:02:55.104Z,1014.4
2022-10-19T12:04:10.365Z,1014.4
2022-10-19T12:05:25.628Z,1014.3
2022-10-19T12:06:40.885Z,1014.3
2022-10-19T12:07:56.145Z,1014.3
2022-10-19T12:09:12.369Z,1014.2
2022-10-19T12:10:28.619Z,1014.2
2022-10-19T12:11:44.849Z,1014.2
2022-10-19T12:13:01.106Z,1014.2
2022-10-19T12:14:17.333Z,1014.2
2022-10-19T12:15:33.576Z,1014.2
2022-10-19T12:16:49.819Z,1014.1
2022-10-19T12:18:05.080Z,1014.1
2022-10-19T12:19:21.319Z,1014.1
2022-10-19T12:20:37.540Z,1014.1
2022-10-19T12:21:53.795Z,1014.1
2022-10-19T12:23:10.032Z,1014.1
2022-10-19T12:24:26.262Z,1014.1
2022-10-19T12:25:42.512Z,1014.1
2022-10-19T12:26:58.762Z,1014.1
2022-10-19T12:28:15.000Z,1014.1
2022-10-19T12:29:31.224Z,1014.1
2022-10-19T12:30:46.484Z,1014
2022-10-19T12:32:01.750Z,1014.1
2022-10-19T12:33:17.984Z,1014
2022-10-19T12:34:33.237Z,1014
2022-10-19T12:35:48.502Z,1014
2022-10-19T12:37:04.734Z,1014
2022-10-19T12:38:19.999Z,1014
2022-10-19T12:39:35.267Z,1014
2022-10-19T12:40:50.515Z,1014
2022-10-19T12:42:05.772Z,1014
2022-10-19T12:43:22.014Z,1014
2022-10-19T12:44:38.256Z,1014
2022-10-19T12:45:54.485Z,1014
2022-10-19T12:47:10.738Z,1014
2022-10-19T12:48:26.968Z,1014
2022-10-19T12:49:43.199Z,1014
2022-10-19T12:50:59.444Z,1014
2022-10-19T12:52:15.675Z,1013.9
2022-10-19T12:53:31.932Z,1013.9
2022-10-19T12:54:48.167Z,1013.9
2022-10-19T12:56:04.407Z,1014
2022-10-19T12:57:20.641Z,1013.9
2022-10-19T12:58:35.893Z,1013.9
2022-10-19T12:59:52.136Z,1013.9
2022-10-19T13:01:08.374Z,1013.9
2022-10-19T13:02:24.609Z,1013.9
2022-10-19T13:03:40.869Z,1013.9
2022-10-19T13:04:57.094Z,1013.9
2022-10-19T13:06:13.327Z,1013.9
2022-10-19T13:07:28.601Z,1013.9
2022-10-19T13:08:43.851Z,1013.9
2022-10-19T13:10:00.085Z,1013.8
2022-10-19T13:11:16.334Z,1013.8
2022-10-19T13:12:32.573Z,1013.8
2022-10-19T13:13:48.813Z,1013.8
2022-10-19T13:15:05.044Z,1013.8
2022-10-19T13:16:21.284Z,1013.8
2022-10-19T13:17:37.517Z,1013.7
2022-10-19T13:18:53.761Z,1013.7
2022-10-19T13:20:10.018Z,1013.7
2022-10-19T13:21:26.256Z,1013.7
2022-10-19T13:22:42.473Z,1013.7
2022-10-19T13:23:58.717Z,1013.7
2022-10-19T13:25:13.979Z,1013.8
2022-10-19T13:26:30.213Z,1013.8
2022-10-19T13:27:46.452Z,1013.8
2022-10-19T13:29:02.704Z,1013.7
2022-10-19T13:30:18.950Z,1013.8
2022-10-19T13:31:35.187Z,1013.8
2022-10-19T13:32:51.404Z,1013.8
2022-10-19T13:34:06.674Z,1013.8
2022-10-19T13:35:21.926Z,1013.8
2022-10-19T13:36:37.196Z,1013.8
2022-10-19T13:37:52.446Z,1013.8
2022-10-19T13:39:08.686Z,1013.8
2022-10-19T13:40:24.930Z,1013.8
2022-10-19T13:41:41.160Z,1013.8
2022-10-19T13:42:57.411Z,1013.8
2022-10-19T13:44:13.646Z,1013.8
2022-10-19T13:45:29.896Z,1013.7
2022-10-19T13:46:46.120Z,1013.7
2022-10-19T13:48:02.360Z,1013.7
2022-10-19T13:49:18.597Z,1013.8
2022-10-19T13:50:34.846Z,1013.8
2022-10-19T13:51:51.087Z,1013.8
2022-10-19T13:53:07.316Z,1013.8
2022-10-19T13:54:22.574Z,1013.9
2022-10-19T13:55:38.823Z,1013.9
2022-10-19T13:56:55.050Z,1013.9
2022-10-19T13:58:11.295Z,1013.8
2022-10-19T13:59:27.543Z,1013.9
2022-10-19T14:00:43.767Z,1013.8
2022-10-19T14:02:00.020Z,1013.9
2022-10-19T14:03:15.273Z,1013.9
2022-10-19T14:04:30.523Z,1013.9
2022-10-19T14:05:45.791Z,1013.8
2022-10-19T14:07:01.039Z,1013.8
2022-10-19T14:08:17.272Z,1013.8
2022-10-19T14:09:33.526Z,1013.8
2022-10-19T14:10:49.763Z,1013.8
2022-10-19T14:12:05.996Z,1013.8
2022-10-19T14:13:22.253Z,1013.8
2022-10-19T14:14:38.474Z,1013.8
2022-10-19T14:15:54.718Z,1013.8
2022-10-19T14:17:10.970Z,1013.8
2022-10-19T14:18:27.187Z,1013.8
2022-10-19T14:19:43.441Z,1013.8
2022-10-19T14:20:59.671Z,1013.7
2022-10-19T14:22:15.926Z,1013.7
2022-10-19T14:23:31.169Z,1013.7
2022-10-19T14:24:47.411Z,1013.6
2022-10-19T14:26:03.656Z,1013.7
2022-10-19T14:27:19.884Z,1013.7
2022-10-19T14:28:36.120Z,1013.7
2022-10-19T14:29:52.376Z,1013.7
2022-10-19T14:31:08.608Z,1013.7
2022-10-19T14:32:23.877Z,1013.6
2022-10-19T14:33:39.124Z,1013.6
2022-10-19T14:34:55.366Z,1013.6
2022-10-19T14:36:11.612Z,1013.6
2022-10-19T14:37:27.856Z,1013.6
2022-10-19T14:38:44.092Z,1013.7
2022-10-19T14:40:00.332Z,1013.6
2022-10-19T14:41:16.000Z,1013.6
2022-10-19T14:42:32.806Z,1013.7
2022-10-19T14:43:49.042Z,1013.7
2022-10-19T14:45:05.283Z,1013.7
2022-10-19T14:46:21.527Z,1013.7
2022-10-19T14:47:37.754Z,1013.7
2022-10-19T14:48:53.992Z,1013.7
2022-10-19T14:50:09.254Z,1013.7
2022-10-19T14:51:25.498Z,1013.7
2022-10-19T14:52:41.731Z,1013.7
2022-10-19T14:53:57.974Z,1013.6
2022-10-19T14:55:14.220Z,1013.6
2022-10-19T14:56:30.456Z,1013.7
2022-10-19T14:57:46.691Z,1013.7
2022-10-19T14:59:01.948Z,1013.7
2022-10-19T15:00:17.218Z,1013.6
2022-10-19T15:01:32.461Z,1013.7
2022-10-19T15:02:47.720Z,1013.7
2022-10-19T15:04:02.984Z,1013.7
2022-10-19T15:05:18.238Z,1013.6
2022-10-19T15:06:34.475Z,1013.6
2022-10-19T15:07:50.722Z,1013.6
2022-10-19T15:09:06.950Z,1013.6
2022-10-19T15:10:23.188Z,1013.6
2022-10-19T15:11:39.430Z,1013.5
2022-10-19T15:12:55.685Z,1013.6
2022-10-19T15:14:11.903Z,1013.6
2022-10-19T15:15:28.155Z,1013.6
2022-10-19T15:16:44.394Z,1013.6
2022-10-19T15:18:00.634Z,1013.6
2022-10-19T15:19:16.868Z,1013.6
2022-10-19T15:20:33.108Z,1013.5
2022-10-19T15:21:48.375Z,1013.5
2022-10-19T15:23:04.614Z,1013.5
2022-10-19T15:24:20.842Z,1013.5
2022-10-19T15:25:37.076Z,1013.5
2022-10-19T15:26:53.318Z,1013.5
2022-10-19T15:28:09.559Z,1013.5
2022-10-19T15:29:25.814Z,1013.5
2022-10-19T15:30:41.059Z,1013.5
2022-10-19T15:31:56.321Z,1013.5
2022-10-19T15:33:12.551Z,1013.5
2022-10-19T15:34:28.792Z,1013.5
2022-10-19T15:35:45.038Z,1013.5
2022-10-19T15:37:01.279Z,1013.5
2022-10-19T15:38:17.510Z,1013.5
2022-10-19T15:39:33.770Z,1013.4
2022-10-19T15:40:49.981Z,1013.5
2022-10-19T15:42:06.236Z,1013.5
2022-10-19T15:43:22.478Z,1013.4
2022-10-19T15:44:38.708Z,1013.4
2022-10-19T15:45:54.957Z,1013.4
2022-10-19T15:47:11.186Z,1013.4
2022-10-19T15:48:26.451Z,1013.4
2022-10-19T15:49:42.687Z,1013.4
2022-10-19T15:50:58.936Z,1013.4
2022-10-19T15:52:15.180Z,1013.4
2022-10-19T15:53:31.420Z,1013.4
2022-10-19T15:54:47.654Z,1013.4
2022-10-19T15:56:03.882Z,1013.4
2022-10-19T15:57:19.138Z,1013.4
2022-10-19T15:58:34.399Z,1013.4
2022-10-19T15:59:50.632Z,1013.4
2022-10-19T16:01:06.877Z,1013.3
2022-10-19T16:02:23.109Z,1013.4
2022-10-19T16:03:39.360Z,1013.3
2022-10-19T16:04:55.594Z,1013.3
2022-10-19T16:06:11.843Z,1013.3
2022-10-19T16:07:28.090Z,1013.3
2022-10-19T16:08:44.317Z,1013.3
2022-10-19T16:10:00.559Z,1013.3
2022-10-19T16:11:16.792Z,1013.3
2022-10-19T16:12:33.026Z,1013.3
2022-10-19T16:13:49.280Z,1013.3
2022-10-19T16:15:04.521Z,1013.3
2022-10-19T16:16:20.777Z,1013.3
2022-10-19T16:17:36.997Z,1013.3
2022-10-19T16:18:53.248Z,1013.4
2022-10-19T16:20:09.500Z,1013.3
2022-10-19T16:21:25.722Z,1013.4
2022-10-19T16:22:41.964Z,1013.4
2022-10-19T16:23:57.239Z,1013.4
2022-10-19T16:25:12.482Z,1013.5
2022-10-19T16:26:27.747Z,1013.4
2022-10-19T16:27:43.008Z,1013.4
2022-10-19T16:28:58.266Z,1013.4
2022-10-19T16:30:13.504Z,1013.4
2022-10-19T16:31:28.773Z,1013.5
2022-10-19T16:32:44.034Z,1013.5
2022-10-19T16:34:00.266Z,1013.5
2022-10-19T16:35:16.511Z,1013.5
2022-10-19T16:36:32.751Z,1013.5
2022-10-19T16:37:48.984Z,1013.4
2022-10-19T16:39:05.232Z,1013.5
2022-10-19T16:40:21.468Z,1013.5
2022-10-19T16:41:37.712Z,1013.5
2022-10-19T16:42:53.955Z,1013.5
2022-10-19T16:44:10.203Z,1013.5
2022-10-19T16:45:26.438Z,1013.5
2022-10-19T16:46:42.678Z,1013.5
2022-10-19T16:47:58.916Z,1013.6
2022-10-19T16:49:14.178Z,1013.5
2022-10-19T16:50:30.408Z,1013.6
2022-10-19T16:51:46.649Z,1013.6
2022-10-19T16:53:02.889Z,1013.6
2022-10-19T16:54:19.135Z,1013.5
2022-10-19T16:55:35.365Z,1013.6
2022-10-19T16:56:51.605Z,1013.6
2022-10-19T16:58:06.866Z,1013.5
2022-10-19T16:59:22.121Z,1013.5
2022-10-19T17:00:38.365Z,1013.5
2022-10-19T17:01:54.604Z,1013.5
2022-10-19T17:03:10.842Z,1013.5
2022-10-19T17:04:27.069Z,1013.5
2022-10-19T17:05:43.320Z,1013.5
2022-10-19T17:06:59.558Z,1013.5
2022-10-19T17:08:15.802Z,1013.5
2022-10-19T17:09:32.050Z,1013.5
2022-10-19T17:10:48.272Z,1013.6
2022-10-19T17:12:04.511Z,1013.6
2022-10-19T17:13:20.765Z,1013.6
2022-10-19T17:14:37.006Z,1013.6
2022-10-19T17:15:52.249Z,1013.6
2022-10-19T17:17:08.494Z,1013.6
2022-10-19T17:18:24.736Z,1013.5
2022-10-19T17:19:40.975Z,1013.5
2022-10-19T17:20:57.205Z,1013.5
2022-10-19T17:22:13.447Z,1013.5
2022-10-19T17:23:29.702Z,1013.5
2022-10-19T17:24:44.962Z,1013.5
2022-10-19T17:26:00.198Z,1013.5
2022-10-19T17:27:16.442Z,1013.5
2022-10-19T17:28:32.680Z,1013.6
2022-10-19T17:29:48.925Z,1013.6
2022-10-19T17:31:05.152Z,1013.5
2022-10-19T17:32:21.409Z,1013.6
2022-10-19T17:33:37.634Z,1013.6
2022-10-19T17:34:53.890Z,1013.6
2022-10-19T17:36:10.122Z,1013.6
2022-10-19T17:37:26.368Z,1013.5
2022-10-19T17:38:42.000Z,1013.6
2022-10-19T17:39:58.844Z,1013.5
2022-10-19T17:41:15.069Z,1013.5
2022-10-19T17:42:30.336Z,1013.5
2022-10-19T17:43:46.571Z,1013.5
2022-10-19T17:45:02.811Z,1013.5
2022-10-19T17:46:19.054Z,1013.5
2022-10-19T17:47:35.296Z,1013.5
2022-10-19T17:48:51.535Z,1013.5
2022-10-19T17:50:07.773Z,1013.5
2022-10-19T17:51:23.025Z,1013.5
2022-10-19T17:52:38.296Z,1013.5
2022-10-19T17:53:54.518Z,1013.6
2022-10-19T17:55:10.774Z,1013.6
2022-10-19T17:56:27.012Z,1013.6
2022-10-19T17:57:43.261Z,1013.6
2022-10-19T17:58:59.495Z,1013.6
2022-10-19T18:00:15.741Z,1013.6
2022-10-19T18:01:31.965Z,1013.6
2022-10-19T18:02:48.223Z,1013.6
2022-10-19T18:04:04.435Z,1013.7
2022-10-19T18:05:20.698Z,1013.6
2022-10-19T18:06:36.917Z,1013.6
2022-10-19T18:07:53.169Z,1013.6
2022-10-19T18:09:08.418Z,1013.6
2022-10-19T18:10:24.657Z,1013.5
2022-10-19T18:11:40.896Z,1013.5
2022-10-19T18:12:57.131Z,1013.6
2022-10-19T18:14:13.396Z,1013.6
2022-10-19T18:15:29.616Z,1013.6
2022-10-19T18:16:45.849Z,1013.6
2022-10-19T18:18:02.106Z,1013.5
2022-10-19T18:19:18.336Z,1013.6
2022-10-19T18:20:34.579Z,1013.6
2022-10-19T18:21:50.808Z,1013.6
2022-10-19T18:23:07.055Z,1013.6
2022-10-19T18:24:23.308Z,1013.6
2022-10-19T18:25:38.569Z,1013.6
2022-10-19T18:26:54.797Z,1013.6
2022-10-19T18:28:11.034Z,1013.6
2022-10-19T18:29:27.266Z,1013.6
2022-10-19T18:30:43.512Z,1013.6
2022-10-19T18:31:59.750Z,1013.6
2022-10-19T18:33:15.994Z,1013.5
2022-10-19T18:34:32.243Z,1013.6
2022-10-19T18:35:48.478Z,1013.5
2022-10-19T18:37:04.721Z,1013.6
2022-10-19T18:38:20.949Z,1013.6
2022-10-19T18:39:37.203Z,1013.6
2022-10-19T18:40:53.428Z,1013.6
2022-10-19T18:42:08.676Z,1013.5
2022-10-19T18:43:24.931Z,1013.5
2022-10-19T18:44:41.156Z,1013.5
2022-10-19T18:45:57.417Z,1013.5
2022-10-19T18:47:13.641Z,1013.5
2022-10-19T18:48:29.886Z,1013.5
2022-10-19T18:49:46.127Z,1013.4
2022-10-19T18:51:02.378Z,1013.4
2022-10-19T18:52:18.612Z,1013.4
2022-10-19T18:53:34.858Z,1013.4
2022-10-19T18:54:51.078Z,1013.4
2022-10-19T18:56:07.332Z,1013.3
2022-10-19T18:57:23.556Z,1013.3
2022-10-19T18:58:38.814Z,1013.4
2022-10-19T18:59:55.070Z,1013.4
2022-10-19T19:01:11.310Z,1013.4
2022-10-19T19:02:27.544Z,1013.4
2022-10-19T19:03:43.788Z,1013.3
2022-10-19T19:05:00.031Z,1013.4
2022-10-19T19:06:16.273Z,1013.3
2022-10-19T19:07:32.498Z,1013.3
2022-10-19T19:08:48.733Z,1013.3
2022-10-19T19:10:04.973Z,1013.2
2022-10-19T19:11:21.230Z,1013.2
2022-10-19T19:12:37.454Z,1013.2
2022-10-19T19:13:53.687Z,1013.2
2022-10-19T19:15:08.000Z,1013.2
2022-10-19T19:16:25.204Z,1013.2
2022-10-19T19:17:41.433Z,1013.2
2022-10-19T19:18:57.668Z,1013.3
2022-10-19T19:20:13.913Z,1013.2
2022-10-19T19:21:30.168Z,1013.3
2022-10-19T19:22:46.000Z,1013.2
2022-10-19T19:24:02.643Z,1013.2
2022-10-19T19:25:18.872Z,1013.2
2022-10-19T19:26:35.128Z,1013.3
2022-10-19T19:27:51.348Z,1013.3
2022-10-19T19:29:07.586Z,1013.2
2022-10-19T19:30:23.841Z,1013.2
2022-10-19T19:31:39.088Z,1013.3
2022-10-19T19:32:55.320Z,1013.3
2022-10-19T19:34:11.571Z,1013.2
2022-10-19T19:35:27.805Z,1013.3
2022-10-19T19:36:44.053Z,1013.3
2022-10-19T19:38:00.286Z,1013.3
2022-10-19T19:39:16.540Z,1013.4
2022-10-19T19:40:32.777Z,1013.3
2022-10-19T19:41:49.007Z,1013.3
2022-10-19T19:43:05.247Z,1013.3
2022-10-19T19:44:21.493Z,1013.3
2022-10-19T19:45:37.733Z,1013.3
2022-10-19T19:46:53.975Z,1013.3
2022-10-19T19:48:09.227Z,1013.3
2022-10-19T19:49:25.463Z,1013.3
2022-10-19T19:50:41.691Z,1013.3
2022-10-19T19:51:57.939Z,1013.3
2022-10-19T19:53:14.196Z,1013.3
2022-10-19T19:54:30.424Z,1013.4
2022-10-19T19:55:46.673Z,1013.3
2022-10-19T19:57:02.904Z,1013.3
2022-10-19T19:58:19.142Z,1013.3
2022-10-19T19:59:35.384Z,1013.3
2022-10-19T20:00:51.623Z,1013.3
2022-10-19T20:02:07.870Z,1013.3
2022-10-19T20:03:24.111Z,1013.3
2022-10-19T20:04:50.450Z,1013.3
2022-10-19T20:05:56.588Z,1013.4
2022-10-19T20:07:11.837Z,1013.4
2022-10-19T20:08:28.079Z,1013.3
2022-10-19T20:11:00.559Z,1013.3
2022-10-19T20:12:16.780Z,1013.4
2022-10-19T20:13:33.028Z,1013.4